createdAt,value
2018-10-07T00:00:31.687Z,61.20
2018-10-07T00:02:34.611Z,61.30
2018-10-07T00:04:37.562Z,61.40
2018-10-07T00:06:40.635Z,61.40
2018-10-07T00:08:44.327Z,61.60
2018-10-07T00:10:47.320Z,61.50
2018-10-07T00:12:51.334Z,61.40
2018-10-07T00:14:54.258Z,61.40
2018-10-07T00:16:57.185Z,61.40
2018-10-07T00:19:00.986Z,61.60
2018-10-07T00:21:04.666Z,61.70
2018-10-07T00:23:07.590Z,61.60
2018-10-07T00:25:10.533Z,61.60
2018-10-07T00:27:14.226Z,61.80
2018-10-07T00:29:17.146Z,61.70
2018-10-07T00:31:20.201Z,61.80
2018-10-07T00:33:24.627Z,61.80
2018-10-07T00:35:28.435Z,61.90
2018-10-07T00:37:32.158Z,61.90
2018-10-07T00:39:35.084Z,61.80
2018-10-07T00:41:38.802Z,61.80
2018-10-07T00:43:42.634Z,62.00
2018-10-07T00:45:46.321Z,61.80
2018-10-07T00:47:50.023Z,61.90
2018-10-07T00:49:53.755Z,61.90
2018-10-07T00:51:56.704Z,61.90
2018-10-07T00:53:59.796Z,62.00
2018-10-07T00:56:03.669Z,62.10
2018-10-07T00:58:06.597Z,62.10
2018-10-07T01:00:09.525Z,62.20
2018-10-07T01:02:12.658Z,62.20
2018-10-07T01:04:15.633Z,62.30
2018-10-07T01:06:18.544Z,62.30
2018-10-07T01:08:21.503Z,62.30
2018-10-07T01:10:24.425Z,62.40
2018-10-07T01:12:27.353Z,62.40
2018-10-07T01:14:31.191Z,62.50
2018-10-07T01:16:34.096Z,62.50
2018-10-07T01:18:37.159Z,62.60
2018-10-07T01:20:40.093Z,62.60
2018-10-07T01:22:43.804Z,62.70
2018-10-07T01:24:47.498Z,62.70
2018-10-07T01:26:51.231Z,62.90
2018-10-07T01:28:54.141Z,62.70
2018-10-07T01:30:57.052Z,62.80
2018-10-07T01:33:00.159Z,62.90
2018-10-07T01:35:03.240Z,63.00
2018-10-07T01:37:06.901Z,63.00
2018-10-07T01:39:09.922Z,62.90
2018-10-07T01:41:13.621Z,63.10
2018-10-07T01:43:17.288Z,63.00
2018-10-07T01:45:20.239Z,63.60
2018-10-07T01:47:23.171Z,62.90
2018-10-07T01:49:26.838Z,63.00
2018-10-07T01:51:29.871Z,63.00
2018-10-07T01:53:33.543Z,63.00
2018-10-07T01:55:36.520Z,63.00
2018-10-07T01:57:39.428Z,63.00
2018-10-07T01:59:43.106Z,63.20
2018-10-07T02:01:46.091Z,63.00
2018-10-07T02:03:49.098Z,63.10
2018-10-07T02:05:53.554Z,63.30
2018-10-07T02:07:56.477Z,63.30
2018-10-07T02:09:59.400Z,63.30
2018-10-07T02:12:02.337Z,63.30
2018-10-07T02:14:06.085Z,63.30
2018-10-07T02:16:09.723Z,63.90
2018-10-07T02:18:12.666Z,63.20
2018-10-07T02:20:15.627Z,63.20
2018-10-07T02:22:18.561Z,63.20
2018-10-07T02:24:21.492Z,63.30
2018-10-07T02:26:24.416Z,63.40
2018-10-07T02:28:27.356Z,63.50
2018-10-07T02:30:31.035Z,63.60
2018-10-07T02:32:34.728Z,63.50
2018-10-07T02:34:37.647Z,63.50
2018-10-07T02:36:40.560Z,63.50
2018-10-07T02:38:43.508Z,63.60
2018-10-07T02:40:46.431Z,63.60
2018-10-07T02:42:49.344Z,63.60
2018-10-07T02:44:53.047Z,63.80
2018-10-07T02:46:56.748Z,64.50
2018-10-07T02:49:00.443Z,63.70
2018-10-07T02:51:04.137Z,64.00
2018-10-07T02:53:07.130Z,63.60
2018-10-07T02:55:10.024Z,63.60
2018-10-07T02:57:12.931Z,63.70
2018-10-07T02:59:15.866Z,63.70
2018-10-07T03:01:18.883Z,63.70
2018-10-07T03:03:21.823Z,63.60
2018-10-07T03:05:24.846Z,63.60
2018-10-07T03:07:28.512Z,63.80
2018-10-07T03:09:31.456Z,63.80
2018-10-07T03:11:34.380Z,63.90
2018-10-07T03:13:37.316Z,64.00
2018-10-07T03:15:40.240Z,63.90
2018-10-07T03:17:43.919Z,64.00
2018-10-07T03:19:46.946Z,64.00
2018-10-07T03:21:50.611Z,64.60
2018-10-07T03:23:53.563Z,64.20
2018-10-07T03:25:56.471Z,64.30
2018-10-07T03:27:59.396Z,64.30
2018-10-07T03:30:02.352Z,64.30
2018-10-07T03:32:05.280Z,64.50
2018-10-07T03:34:08.216Z,64.50
2018-10-07T03:36:11.266Z,64.50
2018-10-07T03:38:14.306Z,64.60
2018-10-07T03:40:18.108Z,64.80
2018-10-07T03:42:21.774Z,64.90
2018-10-07T03:44:25.699Z,65.10
2018-10-07T03:46:30.122Z,65.00
2018-10-07T03:48:33.821Z,65.20
2018-10-07T03:50:37.511Z,65.40
2018-10-07T03:52:41.199Z,65.30
2018-10-07T03:54:44.127Z,65.30
2018-10-07T03:56:47.094Z,65.30
2018-10-07T03:58:50.792Z,65.30
2018-10-07T04:00:54.476Z,65.20
2018-10-07T04:02:58.171Z,65.20
2018-10-07T04:05:01.112Z,65.20
2018-10-07T04:07:04.031Z,65.20
2018-10-07T04:09:06.964Z,65.30
2018-10-07T04:11:09.904Z,65.50
2018-10-07T04:13:13.589Z,65.30
2018-10-07T04:15:16.527Z,65.80
2018-10-07T04:17:19.450Z,66.70
2018-10-07T04:19:22.411Z,66.00
2018-10-07T04:21:25.307Z,66.10
2018-10-07T04:23:28.215Z,66.30
2018-10-07T04:25:32.748Z,66.80
2018-10-07T04:27:35.708Z,66.40
2018-10-07T04:29:39.389Z,66.60
2018-10-07T04:31:42.344Z,66.40
2018-10-07T04:33:45.255Z,66.50
2018-10-07T04:35:48.168Z,66.40
2018-10-07T04:37:51.978Z,66.40
2018-10-07T04:39:55.791Z,66.30
2018-10-07T04:41:58.739Z,66.20
2018-10-07T04:44:02.420Z,66.20
2018-10-07T04:46:05.363Z,66.20
2018-10-07T04:48:08.296Z,66.00
2018-10-07T04:50:11.223Z,66.00
2018-10-07T04:52:14.293Z,66.00
2018-10-07T04:54:18.053Z,66.00
2018-10-07T04:56:21.013Z,65.90
2018-10-07T04:58:23.941Z,65.80
2018-10-07T05:00:27.687Z,66.20
2018-10-07T05:02:30.631Z,66.10
2018-10-07T05:04:34.443Z,66.30
2018-10-07T05:06:38.106Z,66.30
2018-10-07T05:08:41.229Z,66.20
2018-10-07T05:10:44.934Z,66.50
2018-10-07T05:12:48.603Z,66.70
2018-10-07T05:14:51.543Z,66.70
2018-10-07T05:16:54.461Z,66.80
2018-10-07T05:18:57.528Z,66.90
2018-10-07T05:21:00.508Z,67.10
2018-10-07T05:23:04.127Z,67.50
2018-10-07T05:25:07.266Z,67.50
2018-10-07T05:27:11.404Z,67.60
2018-10-07T05:29:14.438Z,67.80
2018-10-07T05:31:18.442Z,68.00
2018-10-07T05:33:21.428Z,67.90
2018-10-07T05:35:25.113Z,67.80
2018-10-07T05:37:28.795Z,67.60
2018-10-07T05:39:31.933Z,67.60
2018-10-07T05:41:34.856Z,67.50
2018-10-07T05:43:37.848Z,67.50
2018-10-07T05:45:40.796Z,67.50
2018-10-07T05:47:43.708Z,67.50
2018-10-07T05:49:46.629Z,67.50
2018-10-07T05:51:50.425Z,67.50
2018-10-07T05:53:53.411Z,67.50
2018-10-07T05:55:57.074Z,68.50
2018-10-07T05:58:00.012Z,67.50
2018-10-07T06:00:02.935Z,67.60
2018-10-07T06:02:05.918Z,67.60
2018-10-07T06:04:08.856Z,67.40
2018-10-07T06:06:11.788Z,67.50
2018-10-07T06:08:14.734Z,67.30
2018-10-07T06:10:17.722Z,67.30
2018-10-07T06:12:20.640Z,67.40
2018-10-07T06:14:24.471Z,67.00
2018-10-07T06:16:28.204Z,67.70
2018-10-07T06:18:31.153Z,67.60
2018-10-07T06:20:34.092Z,67.70
2018-10-07T06:22:37.042Z,67.80
2018-10-07T06:24:39.975Z,68.00
2018-10-07T06:26:44.517Z,68.10
2018-10-07T06:28:48.207Z,68.10
2018-10-07T06:30:51.893Z,68.30
2018-10-07T06:32:54.833Z,68.20
2018-10-07T06:34:57.739Z,68.40
2018-10-07T06:37:00.673Z,68.50
2018-10-07T06:39:03.708Z,68.80
2018-10-07T06:41:06.623Z,69.00
2018-10-07T06:43:10.429Z,69.20
2018-10-07T06:45:14.167Z,69.40
2018-10-07T06:47:17.218Z,69.30
2018-10-07T06:49:20.916Z,69.90
2018-10-07T06:51:24.002Z,69.90
2018-10-07T06:53:26.927Z,70.30
2018-10-07T06:55:29.884Z,70.50
2018-10-07T06:57:32.845Z,70.70
2018-10-07T06:59:36.575Z,70.90
2018-10-07T07:01:40.203Z,71.80
2018-10-07T07:03:43.152Z,71.00
2018-10-07T07:05:46.062Z,71.10
2018-10-07T07:07:49.198Z,71.20
2018-10-07T07:09:52.140Z,71.30
2018-10-07T07:11:55.863Z,71.50
2018-10-07T07:13:58.800Z,71.40
2018-10-07T07:16:01.719Z,70.90
2018-10-07T07:18:05.405Z,71.90
2018-10-07T07:20:08.383Z,71.80
2018-10-07T07:22:12.100Z,71.90
2018-10-07T07:24:15.796Z,71.70
2018-10-07T07:26:19.507Z,72.00
2018-10-07T07:28:23.325Z,72.10
2018-10-07T07:30:27.124Z,72.10
2018-10-07T07:32:30.815Z,72.20
2018-10-07T07:34:34.494Z,72.20
2018-10-07T07:36:37.443Z,72.10
2018-10-07T07:38:40.355Z,72.00
2018-10-07T07:40:43.301Z,71.90
2018-10-07T07:42:46.213Z,71.90
2018-10-07T07:44:49.131Z,72.00
2018-10-07T07:46:52.939Z,72.00
2018-10-07T07:48:56.609Z,72.10
2018-10-07T07:50:59.621Z,72.00
2018-10-07T07:53:03.283Z,71.90
2018-10-07T07:55:06.218Z,71.90
2018-10-07T07:57:09.172Z,71.90
2018-10-07T07:59:12.851Z,71.80
2018-10-07T08:01:15.780Z,71.80
2018-10-07T08:03:18.788Z,71.80
2018-10-07T08:05:21.711Z,71.80
2018-10-07T08:07:25.418Z,72.50
2018-10-07T08:09:28.319Z,71.70
2018-10-07T08:11:31.281Z,71.70
2018-10-07T08:13:34.975Z,71.60
2018-10-07T08:15:38.687Z,71.40
2018-10-07T08:17:42.463Z,71.40
2018-10-07T08:19:46.079Z,71.40
2018-10-07T08:21:49.784Z,71.00
2018-10-07T08:23:53.479Z,71.60
2018-10-07T08:25:57.190Z,71.30
2018-10-07T08:28:00.871Z,71.20
2018-10-07T08:30:04.560Z,70.40
2018-10-07T08:32:09.023Z,71.00
2018-10-07T08:34:11.955Z,71.00
2018-10-07T08:36:14.980Z,70.80
2018-10-07T08:38:18.794Z,70.60
2018-10-07T08:40:21.735Z,70.60
2018-10-07T08:42:26.152Z,70.20
2018-10-07T08:44:29.167Z,70.10
2018-10-07T08:46:32.865Z,69.60
2018-10-07T08:48:36.550Z,69.40
2018-10-07T08:50:40.368Z,69.90
2018-10-07T08:52:44.036Z,69.00
2018-10-07T08:54:46.960Z,68.90
2018-10-07T08:56:49.922Z,68.60
2018-10-07T08:58:53.605Z,68.30
2018-10-07T09:00:58.147Z,68.20
2018-10-07T09:03:01.824Z,68.20
2018-10-07T09:05:05.511Z,68.20
2018-10-07T09:07:09.963Z,68.00
2018-10-07T09:09:13.644Z,67.80
2018-10-07T09:11:17.347Z,68.20
2018-10-07T09:13:21.039Z,67.40
2018-10-07T09:15:24.740Z,67.50
2018-10-07T09:17:29.262Z,67.40
2018-10-07T09:19:32.176Z,67.30
2018-10-07T09:21:35.147Z,67.20
2018-10-07T09:23:38.160Z,67.10
2018-10-07T09:25:41.087Z,66.90
2018-10-07T09:27:44.767Z,66.70
2018-10-07T09:29:47.794Z,66.80
2018-10-07T09:31:51.475Z,66.80
2018-10-07T09:33:55.211Z,66.80
2018-10-07T09:35:58.132Z,66.70
2018-10-07T09:38:01.048Z,66.60
2018-10-07T09:40:04.771Z,66.60
2018-10-07T09:42:07.709Z,66.50
2018-10-07T09:44:10.636Z,66.50
2018-10-07T09:46:13.575Z,66.50
2018-10-07T09:48:18.123Z,66.40
2018-10-07T09:50:21.924Z,66.30
2018-10-07T09:52:25.167Z,66.30
2018-10-07T09:54:28.068Z,66.00
2018-10-07T09:56:31.099Z,66.00
2018-10-07T09:58:34.038Z,65.80
2018-10-07T10:00:37.775Z,65.80
2018-10-07T10:02:40.704Z,65.50
2018-10-07T10:04:44.110Z,65.40
2018-10-07T10:06:46.965Z,65.10
2018-10-07T10:08:49.899Z,65.00
2018-10-07T10:10:53.961Z,65.00
2018-10-07T10:12:56.855Z,64.90
2018-10-07T10:15:01.279Z,64.60
2018-10-07T10:17:04.240Z,64.60
2018-10-07T10:19:07.247Z,64.60
2018-10-07T10:21:11.708Z,64.60
2018-10-07T10:23:14.741Z,64.60
2018-10-07T10:25:18.557Z,64.50
2018-10-07T10:27:22.894Z,64.50
2018-10-07T10:29:26.624Z,64.30
2018-10-07T10:31:29.568Z,64.20
2018-10-07T10:33:33.575Z,63.90
2018-10-07T10:35:37.340Z,63.80
2018-10-07T10:37:40.366Z,63.70
2018-10-07T10:39:43.767Z,63.70
2018-10-07T10:41:46.722Z,63.30
2018-10-07T10:43:50.433Z,63.30
2018-10-07T10:45:54.116Z,63.20
2018-10-07T10:47:58.105Z,63.10
2018-10-07T10:50:01.025Z,63.00
2018-10-07T10:52:04.741Z,63.10
2018-10-07T10:54:07.711Z,63.00
2018-10-07T10:56:11.412Z,62.90
2018-10-07T10:58:15.088Z,62.50
2018-10-07T11:00:18.915Z,62.30
2018-10-07T11:02:22.614Z,62.30
2018-10-07T11:04:26.384Z,62.00
2018-10-07T11:06:29.311Z,61.90
2018-10-07T11:08:32.247Z,61.80
2018-10-07T11:10:35.316Z,61.80
2018-10-07T11:12:38.299Z,61.60
2018-10-07T11:14:41.533Z,61.60
2018-10-07T11:16:44.116Z,61.50
2018-10-07T11:18:47.708Z,61.30
2018-10-07T11:20:51.799Z,61.40
2018-10-07T11:22:54.408Z,61.30
2018-10-07T11:24:57.988Z,61.60
2018-10-07T11:27:00.617Z,61.50
2018-10-07T11:29:03.346Z,61.40
2018-10-07T11:31:06.838Z,61.60
2018-10-07T11:33:10.959Z,61.50
2018-10-07T11:35:14.702Z,61.40
2018-10-07T11:37:17.570Z,61.40
2018-10-07T11:39:20.459Z,61.30
2018-10-07T11:41:23.161Z,61.30
2018-10-07T11:43:27.084Z,61.10
2018-10-07T11:45:30.790Z,61.10
2018-10-07T11:47:33.409Z,61.00
2018-10-07T11:49:36.773Z,60.60
2018-10-07T11:51:40.365Z,60.70
2018-10-07T11:53:43.144Z,60.70
2018-10-07T11:55:46.642Z,60.70
2018-10-07T11:57:49.999Z,60.40
2018-10-07T11:59:52.694Z,60.30
2018-10-07T12:01:56.908Z,60.10
2018-10-07T12:04:00.996Z,59.80
2018-10-07T12:06:03.591Z,59.80
2018-10-07T12:08:06.472Z,59.90
2018-10-07T12:10:09.880Z,60.20
2018-10-07T12:12:12.440Z,60.10
2018-10-07T12:14:15.131Z,59.70
2018-10-07T12:16:18.513Z,59.50
2018-10-07T12:18:21.859Z,59.60
2018-10-07T12:20:24.509Z,59.50
2018-10-07T12:22:27.086Z,59.70
2018-10-07T12:24:29.666Z,59.40
2018-10-07T12:26:32.405Z,59.20
2018-10-07T12:28:35.753Z,58.50
2018-10-07T12:30:38.336Z,58.50
2018-10-07T12:32:41.140Z,58.50
2018-10-07T12:34:43.815Z,58.40
2018-10-07T12:36:46.512Z,58.40
2018-10-07T12:38:49.143Z,58.20
2018-10-07T12:40:51.728Z,58.20
2018-10-07T12:42:54.416Z,58.10
2018-10-07T12:44:57.707Z,57.60
2018-10-07T12:47:00.384Z,57.80
2018-10-07T12:49:02.977Z,58.00
2018-10-07T12:51:06.364Z,58.40
2018-10-07T12:53:09.707Z,58.30
2018-10-07T12:55:12.297Z,58.30
2018-10-07T12:57:14.917Z,58.30
2018-10-07T12:59:18.263Z,57.90
2018-10-07T13:01:20.872Z,57.80
2018-10-07T13:03:24.255Z,57.40
2018-10-07T13:05:27.742Z,57.10
2018-10-07T13:07:31.835Z,56.70
2018-10-07T13:09:34.492Z,56.70
2018-10-07T13:11:37.205Z,56.60
2018-10-07T13:13:41.291Z,56.50
2018-10-07T13:15:43.936Z,56.40
2018-10-07T13:17:46.544Z,56.60
2018-10-07T13:19:49.246Z,56.60
2018-10-07T13:21:52.615Z,55.80
2018-10-07T13:23:55.306Z,55.80
2018-10-07T13:25:58.660Z,55.70
2018-10-07T13:28:01.383Z,55.60
2018-10-07T13:30:03.959Z,55.50
2018-10-07T13:32:07.304Z,55.70
2018-10-07T13:34:09.933Z,55.50
2018-10-07T13:36:13.283Z,55.90
2018-10-07T13:38:15.869Z,55.30
2018-10-07T13:40:18.493Z,55.20
2018-10-07T13:42:21.070Z,55.10
2018-10-07T13:44:23.675Z,54.80
2018-10-07T13:46:26.277Z,54.50
2018-10-07T13:48:28.868Z,54.40
2018-10-07T13:50:32.244Z,54.30
2018-10-07T13:52:36.556Z,54.20
2018-10-07T13:54:40.256Z,54.30
2018-10-07T13:56:43.204Z,54.30
2018-10-07T13:58:46.215Z,54.10
2018-10-07T14:00:49.144Z,54.20
2018-10-07T14:02:52.063Z,54.30
2018-10-07T14:04:55.990Z,54.50
2018-10-07T14:06:59.659Z,54.30
2018-10-07T14:09:02.612Z,54.20
2018-10-07T14:11:05.578Z,53.70
2018-10-07T14:13:08.507Z,53.50
2018-10-07T14:15:12.927Z,53.60
2018-10-07T14:17:16.146Z,53.60
2018-10-07T14:19:19.807Z,53.20
2018-10-07T14:21:24.224Z,53.20
2018-10-07T14:23:27.424Z,53.20
2018-10-07T14:25:31.354Z,53.30
2018-10-07T14:27:34.308Z,53.20
2018-10-07T14:29:37.427Z,53.30
2018-10-07T14:31:40.336Z,53.30
2018-10-07T14:33:43.359Z,53.20
2018-10-07T14:35:46.321Z,53.30
2018-10-07T14:37:49.232Z,53.40
2018-10-07T14:39:52.920Z,53.70
2018-10-07T14:41:55.994Z,53.60
2018-10-07T14:43:58.908Z,53.70
2018-10-07T14:46:02.617Z,53.60
2018-10-07T14:48:05.565Z,53.50
2018-10-07T14:50:08.581Z,53.50
2018-10-07T14:52:12.264Z,53.60
2018-10-07T14:54:16.083Z,53.30
2018-10-07T14:56:19.750Z,53.30
2018-10-07T14:58:22.674Z,53.20
2018-10-07T15:00:25.615Z,53.10
2018-10-07T15:02:29.355Z,53.20
2018-10-07T15:04:32.229Z,53.20
2018-10-07T15:06:35.193Z,53.30
2018-10-07T15:08:38.884Z,53.40
2018-10-07T15:10:43.311Z,53.40
2018-10-07T15:12:47.129Z,53.90
2018-10-07T15:14:50.792Z,53.70
2018-10-07T15:16:53.811Z,53.60
2018-10-07T15:18:57.715Z,54.10
2018-10-07T15:21:01.399Z,54.20
2018-10-07T15:23:05.073Z,54.30
2018-10-07T15:25:08.083Z,54.20
2018-10-07T15:27:11.767Z,54.50
2018-10-07T15:29:16.242Z,54.60
2018-10-07T15:31:19.910Z,54.00
2018-10-07T15:33:23.586Z,54.70
2018-10-07T15:35:26.512Z,54.70
2018-10-07T15:37:29.456Z,54.70
2018-10-07T15:39:33.143Z,54.90
2018-10-07T15:41:37.707Z,54.90
2018-10-07T15:43:41.427Z,54.90
2018-10-07T15:45:44.352Z,54.90
2018-10-07T15:47:47.287Z,54.90
2018-10-07T15:49:50.223Z,54.90
2018-10-07T15:51:53.944Z,55.10
2018-10-07T15:53:57.647Z,55.10
2018-10-07T15:56:01.364Z,55.10
2018-10-07T15:58:04.279Z,55.00
2018-10-07T16:00:07.200Z,55.00
2018-10-07T16:02:11.010Z,54.90
2018-10-07T16:04:14.979Z,54.90
2018-10-07T16:06:17.961Z,54.90
2018-10-07T16:08:20.907Z,54.80
2018-10-07T16:10:23.827Z,54.80
2018-10-07T16:12:26.756Z,54.70
2018-10-07T16:14:29.729Z,54.80
2018-10-07T16:16:32.711Z,54.80
2018-10-07T16:18:36.439Z,54.90
2018-10-07T16:20:40.884Z,55.00
2018-10-07T16:22:43.787Z,54.90
2018-10-07T16:24:47.475Z,55.00
2018-10-07T16:26:50.411Z,55.00
2018-10-07T16:28:53.340Z,55.00
2018-10-07T16:30:56.356Z,55.00
2018-10-07T16:33:00.057Z,55.20
2018-10-07T16:35:03.731Z,55.20
2018-10-07T16:37:08.143Z,55.20
2018-10-07T16:39:11.105Z,55.20
2018-10-07T16:41:14.011Z,55.30
2018-10-07T16:43:16.919Z,55.40
2018-10-07T16:45:20.628Z,55.30
2018-10-07T16:47:23.543Z,55.30
2018-10-07T16:49:26.467Z,55.20
2018-10-07T16:51:30.168Z,55.10
2018-10-07T16:53:33.853Z,55.20
2018-10-07T16:55:38.272Z,55.20
2018-10-07T16:57:41.197Z,55.10
2018-10-07T16:59:44.107Z,55.20
2018-10-07T17:01:47.007Z,55.20
2018-10-07T17:03:49.958Z,55.20
2018-10-07T17:05:52.864Z,55.20
2018-10-07T17:07:55.866Z,55.40
2018-10-07T17:09:59.596Z,55.50
2018-10-07T17:12:04.008Z,55.70
2018-10-07T17:14:06.996Z,55.20
2018-10-07T17:16:10.905Z,55.30
2018-10-07T17:18:13.847Z,55.20
2018-10-07T17:20:16.859Z,55.20
2018-10-07T17:22:20.867Z,55.20
2018-10-07T17:24:23.808Z,55.20
2018-10-07T17:26:26.834Z,55.20
2018-10-07T17:28:29.919Z,55.30
2018-10-07T17:30:33.926Z,55.30
2018-10-07T17:32:39.046Z,55.40
2018-10-07T17:34:41.952Z,55.30
2018-10-07T17:36:44.879Z,55.40
2018-10-07T17:38:48.182Z,55.40
2018-10-07T17:40:51.711Z,55.40
2018-10-07T17:42:54.652Z,54.90
2018-10-07T17:44:57.674Z,55.00
2018-10-07T17:47:01.357Z,55.40
2018-10-07T17:49:05.197Z,55.00
2018-10-07T17:51:08.261Z,55.50
2018-10-07T17:53:11.924Z,55.80
2018-10-07T17:55:14.852Z,55.70
2018-10-07T17:57:18.032Z,55.70
2018-10-07T17:59:21.730Z,55.80
2018-10-07T18:01:25.390Z,55.90
2018-10-07T18:03:28.321Z,55.70
2018-10-07T18:05:31.251Z,55.80
2018-10-07T18:07:34.932Z,55.80
2018-10-07T18:09:38.036Z,55.70
2018-10-07T18:11:41.061Z,55.70
2018-10-07T18:13:45.173Z,55.70
2018-10-07T18:15:48.566Z,55.70
2018-10-07T18:17:51.857Z,55.70
2018-10-07T18:19:54.807Z,55.70
2018-10-07T18:21:59.412Z,55.80
2018-10-07T18:24:02.647Z,55.80
2018-10-07T18:26:05.815Z,55.80
2018-10-07T18:28:09.946Z,55.90
2018-10-07T18:30:13.849Z,56.00
2018-10-07T18:32:16.883Z,55.80
2018-10-07T18:34:19.852Z,55.90
2018-10-07T18:36:23.755Z,56.00
2018-10-07T18:38:26.804Z,55.80
2018-10-07T18:40:30.480Z,56.00
2018-10-07T18:42:33.488Z,55.90
2018-10-07T18:44:37.247Z,55.90
2018-10-07T18:46:40.380Z,55.90
2018-10-07T18:48:43.431Z,55.90
2018-10-07T18:50:46.405Z,55.90
2018-10-07T18:52:49.412Z,55.90
2018-10-07T18:54:53.206Z,56.20
2018-10-07T18:56:56.198Z,56.20
2018-10-07T18:58:59.299Z,56.20
2018-10-07T19:01:02.326Z,56.30
2018-10-07T19:03:05.277Z,56.30
2018-10-07T19:05:08.274Z,56.40
2018-10-07T19:07:11.313Z,56.40
2018-10-07T19:09:14.316Z,56.40
2018-10-07T19:11:17.983Z,56.40
2018-10-07T19:13:21.028Z,56.30
2018-10-07T19:15:24.028Z,56.20
2018-10-07T19:17:27.037Z,56.20
2018-10-07T19:19:29.989Z,56.20
2018-10-07T19:21:32.987Z,56.20
2018-10-07T19:23:36.206Z,56.30
2018-10-07T19:25:39.995Z,56.40
2018-10-07T19:27:42.999Z,56.30
2018-10-07T19:29:47.185Z,56.40
2018-10-07T19:31:50.283Z,57.10
2018-10-07T19:33:54.122Z,56.50
2018-10-07T19:35:57.501Z,56.60
2018-10-07T19:38:01.439Z,56.70
2018-10-07T19:40:04.460Z,56.60
2018-10-07T19:42:07.582Z,56.70
2018-10-07T19:44:10.628Z,56.80
2018-10-07T19:46:13.644Z,56.90
2018-10-07T19:48:16.683Z,56.80
2018-10-07T19:50:20.343Z,56.90
2018-10-07T19:52:23.293Z,56.90
2018-10-07T19:54:27.056Z,57.00
2018-10-07T19:56:30.136Z,57.00
2018-10-07T19:58:34.019Z,57.10
2018-10-07T20:00:38.496Z,57.20
2018-10-07T20:02:42.453Z,57.30
2018-10-07T20:04:45.507Z,57.30
2018-10-07T20:06:49.517Z,57.40
2018-10-07T20:08:53.192Z,57.50
2018-10-07T20:10:56.128Z,57.50
2018-10-07T20:12:59.029Z,57.60
2018-10-07T20:15:02.004Z,57.60
2018-10-07T20:17:04.940Z,57.80
2018-10-07T20:19:08.662Z,58.00
2018-10-07T20:21:11.562Z,58.00
2018-10-07T20:23:14.464Z,58.00
2018-10-07T20:25:17.386Z,58.10
2018-10-07T20:27:21.292Z,58.20
2018-10-07T20:29:24.215Z,58.20
2018-10-07T20:31:27.128Z,58.20
2018-10-07T20:33:30.083Z,58.20
2018-10-07T20:35:33.005Z,58.10
2018-10-07T20:37:36.671Z,58.30
2018-10-07T20:39:39.624Z,58.30
2018-10-07T20:41:42.560Z,58.30
2018-10-07T20:43:46.247Z,58.70
2018-10-07T20:45:49.196Z,58.60
2018-10-07T20:47:52.126Z,58.70
2018-10-07T20:49:55.818Z,58.90
2018-10-07T20:51:58.884Z,58.80
2018-10-07T20:54:02.515Z,59.20
2018-10-07T20:56:06.192Z,59.30
2018-10-07T20:58:09.123Z,59.30
2018-10-07T21:00:12.054Z,59.40
2018-10-07T21:02:15.108Z,59.60
2018-10-07T21:04:18.052Z,59.60
2018-10-07T21:06:21.734Z,59.80
2018-10-07T21:08:25.420Z,59.90
2018-10-07T21:10:28.372Z,59.80
2018-10-07T21:12:31.321Z,59.80
2018-10-07T21:14:34.999Z,60.00
2018-10-07T21:16:38.703Z,60.00
2018-10-07T21:18:42.376Z,60.20
2018-10-07T21:20:45.403Z,60.00
2018-10-07T21:22:49.211Z,60.20
2018-10-07T21:24:52.130Z,60.10
2018-10-07T21:26:55.047Z,60.10
2018-10-07T21:28:58.869Z,60.90
2018-10-07T21:31:01.796Z,60.20
2018-10-07T21:33:04.702Z,60.20
2018-10-07T21:35:07.650Z,60.20
2018-10-07T21:37:10.573Z,60.20
2018-10-07T21:39:13.493Z,60.20
2018-10-07T21:41:16.445Z,59.60
2018-10-07T21:43:19.429Z,60.30
2018-10-07T21:45:23.151Z,60.50
2018-10-07T21:47:26.859Z,60.50
2018-10-07T21:49:29.783Z,60.40
2018-10-07T21:51:32.710Z,61.30
2018-10-07T21:53:36.511Z,60.70
2018-10-07T21:55:40.199Z,61.10
2018-10-07T21:57:43.891Z,60.60
2018-10-07T21:59:47.614Z,60.60
2018-10-07T22:01:50.532Z,60.50
2018-10-07T22:03:53.444Z,60.50
2018-10-07T22:05:56.402Z,60.60
2018-10-07T22:07:59.339Z,60.70
2018-10-07T22:10:03.012Z,60.70
2018-10-07T22:12:06.124Z,60.60
2018-10-07T22:14:09.803Z,60.80
2018-10-07T22:16:13.500Z,60.90
2018-10-07T22:18:17.356Z,61.00
2018-10-07T22:20:21.103Z,61.00
2018-10-07T22:22:24.113Z,60.90
2018-10-07T22:24:27.820Z,61.20
2018-10-07T22:26:30.739Z,61.10
2018-10-07T22:28:33.782Z,61.10
2018-10-07T22:30:37.493Z,61.30
2018-10-07T22:32:40.424Z,61.20
2018-10-07T22:34:43.359Z,61.20
2018-10-07T22:36:46.287Z,61.20
2018-10-07T22:38:49.319Z,61.30
2018-10-07T22:40:52.232Z,61.40
2018-10-07T22:42:55.263Z,61.50
2018-10-07T22:44:58.947Z,61.70
2018-10-07T22:47:03.367Z,61.60
2018-10-07T22:49:07.295Z,61.70
2018-10-07T22:51:10.967Z,61.70
2018-10-07T22:53:14.659Z,62.50
2018-10-07T22:55:17.613Z,61.50
2018-10-07T22:57:20.529Z,61.50
2018-10-07T22:59:23.533Z,61.50
2018-10-07T23:01:26.471Z,61.50
2018-10-07T23:03:29.383Z,60.80
2018-10-07T23:05:32.402Z,61.50
2018-10-07T23:07:35.472Z,61.50
2018-10-07T23:09:39.836Z,61.50
2018-10-07T23:11:42.739Z,61.40
2018-10-07T23:13:46.380Z,61.50
2018-10-07T23:15:49.288Z,61.60
2018-10-07T23:17:52.204Z,61.60
2018-10-07T23:19:56.138Z,62.20
2018-10-07T23:21:59.803Z,61.90
2018-10-07T23:24:02.727Z,61.80
2018-10-07T23:26:05.672Z,61.80
2018-10-07T23:28:08.683Z,61.90
2018-10-07T23:30:12.486Z,62.10
2018-10-07T23:32:16.188Z,62.20
2018-10-07T23:34:19.127Z,62.20
2018-10-07T23:36:22.151Z,62.20
2018-10-07T23:38:25.871Z,62.40
2018-10-07T23:40:28.785Z,62.30
2018-10-07T23:42:31.704Z,62.40
2018-10-07T23:44:35.006Z,62.50
2018-10-07T23:46:38.705Z,62.70
2018-10-07T23:48:42.394Z,62.60
2018-10-07T23:50:46.105Z,62.50
2018-10-07T23:52:49.772Z,62.70
2018-10-07T23:54:52.788Z,62.50
2018-10-07T23:56:57.307Z,62.70
2018-10-07T23:59:00.979Z,62.80
